sensor_id;sensor_type;location;lat;lon;timestamp;P1;durP1;ratioP1;P2;durP2;ratioP2
69979;SDS011;57318;56.232;43.944;2023-08-21T00:01:20;6.83;;;2.17;;
69979;SDS011;57318;56.232;43.944;2023-08-21T00:03:46;2.17;;;1.80;;
69979;SDS011;57318;56.232;43.944;2023-08-21T00:06:12;3.40;;;2.30;;
69979;SDS011;57318;56.232;43.944;2023-08-21T00:08:37;2.90;;;1.60;;
69979;SDS011;57318;56.232;43.944;2023-08-21T00:11:03;2.17;;;1.70;;
69979;SDS011;57318;56.232;43.944;2023-08-21T00:13:29;3.50;;;1.70;;
69979;SDS011;57318;56.232;43.944;2023-08-21T00:15:54;1.63;;;1.40;;
69979;SDS011;57318;56.232;43.944;2023-08-21T00:18:21;3.05;;;1.42;;
69979;SDS011;57318;56.232;43.944;2023-08-21T00:20:47;2.88;;;1.52;;
69979;SDS011;57318;56.232;43.944;2023-08-21T00:23:13;6.00;;;1.40;;
69979;SDS011;57318;56.232;43.944;2023-08-21T00:25:39;1.52;;;1.02;;
69979;SDS011;57318;56.232;43.944;2023-08-21T00:28:05;2.47;;;1.03;;
69979;SDS011;57318;56.232;43.944;2023-08-21T00:30:31;1.20;;;1.10;;
69979;SDS011;57318;56.232;43.944;2023-08-21T00:32:57;1.30;;;1.20;;
69979;SDS011;57318;56.232;43.944;2023-08-21T00:35:25;1.08;;;1.00;;
69979;SDS011;57318;56.232;43.944;2023-08-21T00:37:51;1.30;;;1.20;;
69979;SDS011;57318;56.232;43.944;2023-08-21T00:40:16;3.73;;;1.37;;
69979;SDS011;57318;56.232;43.944;2023-08-21T00:42:43;1.35;;;1.25;;
69979;SDS011;57318;56.232;43.944;2023-08-21T00:45:08;1.83;;;1.40;;
69979;SDS011;57318;56.232;43.944;2023-08-21T00:47:35;1.93;;;1.27;;
69979;SDS011;57318;56.232;43.944;2023-08-21T00:50:01;3.15;;;1.48;;
69979;SDS011;57318;56.232;43.944;2023-08-21T00:52:29;2.08;;;1.77;;
69979;SDS011;57318;56.232;43.944;2023-08-21T00:54:55;1.98;;;1.75;;
69979;SDS011;57318;56.232;43.944;2023-08-21T00:59:48;3.20;;;2.15;;
69979;SDS011;57318;56.232;43.944;2023-08-21T01:02:14;5.57;;;2.90;;
69979;SDS011;57318;56.232;43.944;2023-08-21T01:04:39;3.73;;;2.77;;
69979;SDS011;57318;56.232;43.944;2023-08-21T01:07:05;4.37;;;2.70;;
69979;SDS011;57318;56.232;43.944;2023-08-21T01:17:24;4.40;;;3.40;;
69979;SDS011;57318;56.232;43.944;2023-08-21T01:19:51;4.55;;;3.30;;
69979;SDS011;57318;56.232;43.944;2023-08-21T01:22:18;5.10;;;3.33;;
69979;SDS011;57318;56.232;43.944;2023-08-21T01:24:44;4.77;;;2.57;;
69979;SDS011;57318;56.232;43.944;2023-08-21T01:27:10;5.97;;;2.80;;
69979;SDS011;57318;56.232;43.944;2023-08-21T01:29:39;4.45;;;2.55;;
69979;SDS011;57318;56.232;43.944;2023-08-21T01:32:10;4.45;;;2.97;;
69979;SDS011;57318;56.232;43.944;2023-08-21T01:34:58;4.38;;;3.47;;
69979;SDS011;57318;56.232;43.944;2023-08-21T01:37:24;4.43;;;3.42;;
69979;SDS011;57318;56.232;43.944;2023-08-21T01:39:52;6.63;;;3.72;;
69979;SDS011;57318;56.232;43.944;2023-08-21T01:42:18;4.37;;;3.47;;
69979;SDS011;57318;56.232;43.944;2023-08-21T01:44:44;4.53;;;3.67;;
69979;SDS011;57318;56.232;43.944;2023-08-21T01:47:12;4.90;;;3.50;;
69979;SDS011;57318;56.232;43.944;2023-08-21T01:49:38;4.53;;;3.40;;
69979;SDS011;57318;56.232;43.944;2023-08-21T01:52:04;5.37;;;3.37;;
69979;SDS011;57318;56.232;43.944;2023-08-21T01:54:29;5.53;;;3.20;;
69979;SDS011;57318;56.232;43.944;2023-08-21T01:56:55;5.90;;;4.13;;
69979;SDS011;57318;56.232;43.944;2023-08-21T02:01:49;6.38;;;3.20;;
69979;SDS011;57318;56.232;43.944;2023-08-21T02:04:15;6.00;;;3.13;;
69979;SDS011;57318;56.232;43.944;2023-08-21T02:06:41;7.37;;;3.03;;
69979;SDS011;57318;56.232;43.944;2023-08-21T02:09:09;2.80;;;2.28;;
69979;SDS011;57318;56.232;43.944;2023-08-21T02:11:35;2.65;;;2.05;;
69979;SDS011;57318;56.232;43.944;2023-08-21T02:14:01;2.47;;;1.83;;
69979;SDS011;57318;56.232;43.944;2023-08-21T02:16:27;2.10;;;1.80;;
69979;SDS011;57318;56.232;43.944;2023-08-21T02:18:53;1.50;;;1.40;;
69979;SDS011;57318;56.232;43.944;2023-08-21T02:21:19;1.83;;;1.50;;
69979;SDS011;57318;56.232;43.944;2023-08-21T02:23:45;4.05;;;1.40;;
69979;SDS011;57318;56.232;43.944;2023-08-21T02:26:11;1.80;;;1.30;;
69979;SDS011;57318;56.232;43.944;2023-08-21T02:28:36;3.50;;;1.53;;
69979;SDS011;57318;56.232;43.944;2023-08-21T02:31:02;1.50;;;1.40;;
69979;SDS011;57318;56.232;43.944;2023-08-21T02:33:28;2.20;;;1.60;;
69979;SDS011;57318;56.232;43.944;2023-08-21T02:35:54;2.23;;;1.83;;
69979;SDS011;57318;56.232;43.944;2023-08-21T02:38:19;3.43;;;2.13;;
69979;SDS011;57318;56.232;43.944;2023-08-21T02:40:45;2.87;;;2.20;;
69979;SDS011;57318;56.232;43.944;2023-08-21T02:43:12;3.45;;;2.00;;
69979;SDS011;57318;56.232;43.944;2023-08-21T02:45:38;4.20;;;2.10;;
69979;SDS011;57318;56.232;43.944;2023-08-21T02:48:04;3.70;;;2.07;;
69979;SDS011;57318;56.232;43.944;2023-08-21T02:50:30;2.10;;;1.70;;
69979;SDS011;57318;56.232;43.944;2023-08-21T02:52:55;1.50;;;1.40;;
69979;SDS011;57318;56.232;43.944;2023-08-21T02:55:21;2.33;;;1.35;;
69979;SDS011;57318;56.232;43.944;2023-08-21T02:57:47;1.50;;;1.40;;
69979;SDS011;57318;56.232;43.944;2023-08-21T03:00:13;3.23;;;1.40;;
69979;SDS011;57318;56.232;43.944;2023-08-21T03:02:39;2.87;;;1.40;;
69979;SDS011;57318;56.232;43.944;2023-08-21T03:05:09;1.83;;;1.50;;
69979;SDS011;57318;56.232;43.944;2023-08-21T03:07:35;3.72;;;1.50;;
69979;SDS011;57318;56.232;43.944;2023-08-21T03:10:01;1.70;;;1.47;;
69979;SDS011;57318;56.232;43.944;2023-08-21T03:12:29;2.50;;;1.50;;
69979;SDS011;57318;56.232;43.944;2023-08-21T03:14:55;1.53;;;1.40;;
69979;SDS011;57318;56.232;43.944;2023-08-21T03:17:21;3.20;;;1.53;;
69979;SDS011;57318;56.232;43.944;2023-08-21T03:19:46;3.20;;;1.50;;
69979;SDS011;57318;56.232;43.944;2023-08-21T03:22:12;2.77;;;1.60;;
69979;SDS011;57318;56.232;43.944;2023-08-21T03:24:39;2.47;;;1.70;;
69979;SDS011;57318;56.232;43.944;2023-08-21T03:27:04;3.77;;;1.63;;
69979;SDS011;57318;56.232;43.944;2023-08-21T03:29:30;4.80;;;2.07;;
69979;SDS011;57318;56.232;43.944;2023-08-21T03:31:56;3.42;;;2.00;;
69979;SDS011;57318;56.232;43.944;2023-08-21T03:34:23;3.40;;;2.75;;
69979;SDS011;57318;56.232;43.944;2023-08-21T03:36:49;5.00;;;3.35;;
69979;SDS011;57318;56.232;43.944;2023-08-21T03:39:14;3.60;;;3.30;;
69979;SDS011;57318;56.232;43.944;2023-08-21T03:41:41;4.05;;;3.42;;
69979;SDS011;57318;56.232;43.944;2023-08-21T03:44:07;5.07;;;3.45;;
69979;SDS011;57318;56.232;43.944;2023-08-21T03:46:33;3.53;;;2.90;;
69979;SDS011;57318;56.232;43.944;2023-08-21T03:51:25;3.08;;;2.60;;
69979;SDS011;57318;56.232;43.944;2023-08-21T03:53:51;3.33;;;2.57;;
69979;SDS011;57318;56.232;43.944;2023-08-21T03:56:16;3.30;;;2.57;;
69979;SDS011;57318;56.232;43.944;2023-08-21T03:58:44;4.97;;;3.22;;
69979;SDS011;57318;56.232;43.944;2023-08-21T04:01:10;4.70;;;3.77;;
69979;SDS011;57318;56.232;43.944;2023-08-21T04:03:35;4.80;;;3.50;;
69979;SDS011;57318;56.232;43.944;2023-08-21T04:06:02;4.50;;;3.38;;
69979;SDS011;57318;56.232;43.944;2023-08-21T04:08:27;4.33;;;3.40;;
69979;SDS011;57318;56.232;43.944;2023-08-21T04:10:53;4.90;;;3.07;;
69979;SDS011;57318;56.232;43.944;2023-08-21T04:13:19;5.80;;;3.97;;
69979;SDS011;57318;56.232;43.944;2023-08-21T04:15:45;6.47;;;3.90;;
69979;SDS011;57318;56.232;43.944;2023-08-21T04:18:11;4.95;;;3.45;;
69979;SDS011;57318;56.232;43.944;2023-08-21T04:20:37;5.70;;;3.77;;
69979;SDS011;57318;56.232;43.944;2023-08-21T04:23:03;6.80;;;3.80;;
69979;SDS011;57318;56.232;43.944;2023-08-21T04:25:29;6.17;;;3.87;;
69979;SDS011;57318;56.232;43.944;2023-08-21T04:27:55;5.27;;;4.10;;
69979;SDS011;57318;56.232;43.944;2023-08-21T04:30:20;6.23;;;3.80;;
69979;SDS011;57318;56.232;43.944;2023-08-21T04:32:46;5.70;;;4.07;;
69979;SDS011;57318;56.232;43.944;2023-08-21T04:35:13;5.40;;;3.95;;
69979;SDS011;57318;56.232;43.944;2023-08-21T04:37:43;4.80;;;3.58;;
69979;SDS011;57318;56.232;43.944;2023-08-21T04:40:11;6.50;;;3.97;;
69979;SDS011;57318;56.232;43.944;2023-08-21T04:42:37;4.45;;;3.63;;
69979;SDS011;57318;56.232;43.944;2023-08-21T04:45:03;5.83;;;4.10;;
69979;SDS011;57318;56.232;43.944;2023-08-21T04:47:31;6.40;;;4.05;;
69979;SDS011;57318;56.232;43.944;2023-08-21T04:49:58;5.93;;;3.95;;
69979;SDS011;57318;56.232;43.944;2023-08-21T04:52:24;11.23;;;4.30;;
69979;SDS011;57318;56.232;43.944;2023-08-21T04:54:51;7.63;;;4.30;;
69979;SDS011;57318;56.232;43.944;2023-08-21T04:57:16;4.40;;;3.60;;
69979;SDS011;57318;56.232;43.944;2023-08-21T04:59:43;4.95;;;3.05;;
69979;SDS011;57318;56.232;43.944;2023-08-21T05:02:09;5.55;;;2.72;;
69979;SDS011;57318;56.232;43.944;2023-08-21T05:04:36;5.68;;;2.80;;
69979;SDS011;57318;56.232;43.944;2023-08-21T05:07:02;3.33;;;2.70;;
69979;SDS011;57318;56.232;43.944;2023-08-21T05:09:28;5.00;;;2.33;;
69979;SDS011;57318;56.232;43.944;2023-08-21T05:11:54;3.97;;;2.63;;
69979;SDS011;57318;56.232;43.944;2023-08-21T05:14:21;2.80;;;2.50;;
69979;SDS011;57318;56.232;43.944;2023-08-21T05:16:48;3.97;;;2.50;;
69979;SDS011;57318;56.232;43.944;2023-08-21T05:19:14;4.50;;;2.67;;
69979;SDS011;57318;56.232;43.944;2023-08-21T05:21:40;3.00;;;2.40;;
69979;SDS011;57318;56.232;43.944;2023-08-21T05:24:06;5.83;;;3.00;;
69979;SDS011;57318;56.232;43.944;2023-08-21T05:26:32;7.30;;;3.23;;
69979;SDS011;57318;56.232;43.944;2023-08-21T05:28:57;3.97;;;3.20;;
69979;SDS011;57318;56.232;43.944;2023-08-21T05:31:23;5.50;;;3.13;;
69979;SDS011;57318;56.232;43.944;2023-08-21T05:33:49;5.07;;;3.30;;
69979;SDS011;57318;56.232;43.944;2023-08-21T05:36:14;5.13;;;3.67;;
69979;SDS011;57318;56.232;43.944;2023-08-21T05:38:40;5.77;;;3.30;;
69979;SDS011;57318;56.232;43.944;2023-08-21T05:41:06;4.33;;;3.33;;
69979;SDS011;57318;56.232;43.944;2023-08-21T05:43:33;4.10;;;3.70;;
69979;SDS011;57318;56.232;43.944;2023-08-21T05:45:59;4.32;;;3.47;;
69979;SDS011;57318;56.232;43.944;2023-08-21T05:48:25;5.47;;;3.97;;
69979;SDS011;57318;56.232;43.944;2023-08-21T05:50:51;5.13;;;3.40;;
69979;SDS011;57318;56.232;43.944;2023-08-21T05:53:17;4.20;;;3.40;;
69979;SDS011;57318;56.232;43.944;2023-08-21T05:55:43;5.97;;;3.30;;
69979;SDS011;57318;56.232;43.944;2023-08-21T05:58:09;4.10;;;3.30;;
69979;SDS011;57318;56.232;43.944;2023-08-21T06:00:34;3.80;;;3.33;;
69979;SDS011;57318;56.232;43.944;2023-08-21T06:03:01;5.93;;;3.63;;
69979;SDS011;57318;56.232;43.944;2023-08-21T06:05:27;5.70;;;3.30;;
69979;SDS011;57318;56.232;43.944;2023-08-21T06:07:52;5.93;;;3.23;;
69979;SDS011;57318;56.232;43.944;2023-08-21T06:10:18;3.45;;;3.00;;
69979;SDS011;57318;56.232;43.944;2023-08-21T06:12:45;3.03;;;2.53;;
69979;SDS011;57318;56.232;43.944;2023-08-21T06:15:11;4.60;;;2.63;;
69979;SDS011;57318;56.232;43.944;2023-08-21T06:17:37;6.70;;;2.90;;
69979;SDS011;57318;56.232;43.944;2023-08-21T06:20:04;4.40;;;2.80;;
69979;SDS011;57318;56.232;43.944;2023-08-21T06:22:32;4.05;;;2.65;;
69979;SDS011;57318;56.232;43.944;2023-08-21T06:24:58;3.42;;;3.10;;
69979;SDS011;57318;56.232;43.944;2023-08-21T06:27:24;5.03;;;3.70;;
69979;SDS011;57318;56.232;43.944;2023-08-21T06:29:50;4.22;;;2.80;;
69979;SDS011;57318;56.232;43.944;2023-08-21T06:32:16;3.37;;;3.00;;
69979;SDS011;57318;56.232;43.944;2023-08-21T06:34:42;8.73;;;2.92;;
69979;SDS011;57318;56.232;43.944;2023-08-21T06:37:08;5.05;;;2.65;;
69979;SDS011;57318;56.232;43.944;2023-08-21T06:39:34;3.85;;;3.05;;
69979;SDS011;57318;56.232;43.944;2023-08-21T06:42:00;3.65;;;2.90;;
69979;SDS011;57318;56.232;43.944;2023-08-21T06:44:26;6.65;;;2.60;;
69979;SDS011;57318;56.232;43.944;2023-08-21T06:46:52;5.85;;;2.80;;
69979;SDS011;57318;56.232;43.944;2023-08-21T06:49:17;9.98;;;2.50;;
69979;SDS011;57318;56.232;43.944;2023-08-21T06:51:44;2.90;;;2.45;;
69979;SDS011;57318;56.232;43.944;2023-08-21T06:54:09;4.13;;;2.55;;
69979;SDS011;57318;56.232;43.944;2023-08-21T06:56:35;2.72;;;2.53;;
69979;SDS011;57318;56.232;43.944;2023-08-21T06:59:01;4.20;;;2.30;;
69979;SDS011;57318;56.232;43.944;2023-08-21T07:03:53;4.00;;;2.45;;
69979;SDS011;57318;56.232;43.944;2023-08-21T07:06:19;2.63;;;2.40;;
69979;SDS011;57318;56.232;43.944;2023-08-21T07:08:44;3.00;;;2.67;;
69979;SDS011;57318;56.232;43.944;2023-08-21T07:11:10;4.55;;;2.38;;
69979;SDS011;57318;56.232;43.944;2023-08-21T07:13:37;2.90;;;2.58;;
69979;SDS011;57318;56.232;43.944;2023-08-21T07:16:04;5.47;;;2.65;;
69979;SDS011;57318;56.232;43.944;2023-08-21T07:18:34;2.85;;;2.63;;
69979;SDS011;57318;56.232;43.944;2023-08-21T07:21:03;2.65;;;2.45;;
69979;SDS011;57318;56.232;43.944;2023-08-21T07:23:33;3.22;;;2.58;;
69979;SDS011;57318;56.232;43.944;2023-08-21T07:25:59;5.80;;;2.45;;
69979;SDS011;57318;56.232;43.944;2023-08-21T07:28:26;3.08;;;2.40;;
69979;SDS011;57318;56.232;43.944;2023-08-21T07:30:55;2.88;;;2.00;;
69979;SDS011;57318;56.232;43.944;2023-08-21T07:33:22;6.85;;;2.60;;
69979;SDS011;57318;56.232;43.944;2023-08-21T07:35:56;3.95;;;2.40;;
69979;SDS011;57318;56.232;43.944;2023-08-21T07:38:23;4.22;;;2.40;;
69979;SDS011;57318;56.232;43.944;2023-08-21T07:43:14;6.25;;;2.25;;
69979;SDS011;57318;56.232;43.944;2023-08-21T07:45:39;14.40;;;2.90;;
69979;SDS011;57318;56.232;43.944;2023-08-21T07:48:05;8.45;;;1.98;;
69979;SDS011;57318;56.232;43.944;2023-08-21T07:50:31;5.28;;;2.05;;
69979;SDS011;57318;56.232;43.944;2023-08-21T07:52:57;4.28;;;2.20;;
69979;SDS011;57318;56.232;43.944;2023-08-21T07:55:23;4.00;;;2.28;;
69979;SDS011;57318;56.232;43.944;2023-08-21T07:57:49;2.67;;;2.00;;
69979;SDS011;57318;56.232;43.944;2023-08-21T08:00:15;2.63;;;1.98;;
69979;SDS011;57318;56.232;43.944;2023-08-21T08:02:41;5.97;;;2.28;;
69979;SDS011;57318;56.232;43.944;2023-08-21T08:05:08;5.60;;;2.10;;
69979;SDS011;57318;56.232;43.944;2023-08-21T08:09:59;6.57;;;2.67;;
69979;SDS011;57318;56.232;43.944;2023-08-21T08:14:51;3.72;;;1.80;;
69979;SDS011;57318;56.232;43.944;2023-08-21T08:17:16;3.40;;;1.92;;
69979;SDS011;57318;56.232;43.944;2023-08-21T08:19:42;6.28;;;2.15;;
69979;SDS011;57318;56.232;43.944;2023-08-21T08:22:08;2.35;;;1.73;;
69979;SDS011;57318;56.232;43.944;2023-08-21T08:24:34;7.32;;;1.95;;
69979;SDS011;57318;56.232;43.944;2023-08-21T08:27:00;4.45;;;2.15;;
69979;SDS011;57318;56.232;43.944;2023-08-21T08:29:26;8.50;;;2.10;;
69979;SDS011;57318;56.232;43.944;2023-08-21T08:31:52;4.43;;;2.30;;
69979;SDS011;57318;56.232;43.944;2023-08-21T08:34:18;5.78;;;2.35;;
69979;SDS011;57318;56.232;43.944;2023-08-21T08:36:46;3.90;;;2.03;;
69979;SDS011;57318;56.232;43.944;2023-08-21T08:39:11;3.70;;;2.10;;
69979;SDS011;57318;56.232;43.944;2023-08-21T08:41:48;4.22;;;2.15;;
69979;SDS011;57318;56.232;43.944;2023-08-21T08:44:19;6.78;;;2.40;;
69979;SDS011;57318;56.232;43.944;2023-08-21T08:46:45;2.85;;;2.05;;
69979;SDS011;57318;56.232;43.944;2023-08-21T08:51:37;3.57;;;1.93;;
69979;SDS011;57318;56.232;43.944;2023-08-21T08:54:05;2.90;;;1.98;;
69979;SDS011;57318;56.232;43.944;2023-08-21T08:56:32;5.28;;;2.13;;
69979;SDS011;57318;56.232;43.944;2023-08-21T09:01:24;4.70;;;1.90;;
69979;SDS011;57318;56.232;43.944;2023-08-21T09:06:15;6.38;;;2.25;;
69979;SDS011;57318;56.232;43.944;2023-08-21T09:11:18;5.27;;;2.27;;
69979;SDS011;57318;56.232;43.944;2023-08-21T09:13:45;3.95;;;2.15;;
69979;SDS011;57318;56.232;43.944;2023-08-21T09:16:11;5.82;;;2.35;;
69979;SDS011;57318;56.232;43.944;2023-08-21T09:18:46;3.45;;;1.80;;
69979;SDS011;57318;56.232;43.944;2023-08-21T09:21:18;3.95;;;2.08;;
69979;SDS011;57318;56.232;43.944;2023-08-21T09:23:47;2.33;;;2.03;;
69979;SDS011;57318;56.232;43.944;2023-08-21T09:26:19;5.75;;;2.38;;
69979;SDS011;57318;56.232;43.944;2023-08-21T09:28:46;2.72;;;2.30;;
69979;SDS011;57318;56.232;43.944;2023-08-21T09:31:13;2.90;;;2.30;;
69979;SDS011;57318;56.232;43.944;2023-08-21T09:33:39;3.00;;;2.40;;
69979;SDS011;57318;56.232;43.944;2023-08-21T09:36:06;3.33;;;2.35;;
69979;SDS011;57318;56.232;43.944;2023-08-21T09:38:35;3.65;;;2.10;;
69979;SDS011;57318;56.232;43.944;2023-08-21T09:41:01;2.40;;;2.20;;
69979;SDS011;57318;56.232;43.944;2023-08-21T09:43:27;8.05;;;2.67;;
69979;SDS011;57318;56.232;43.944;2023-08-21T09:45:54;4.15;;;2.47;;
69979;SDS011;57318;56.232;43.944;2023-08-21T09:48:24;6.03;;;2.10;;
69979;SDS011;57318;56.232;43.944;2023-08-21T09:50:55;6.35;;;2.75;;
69979;SDS011;57318;56.232;43.944;2023-08-21T09:53:24;7.50;;;2.30;;
69979;SDS011;57318;56.232;43.944;2023-08-21T09:55:52;5.40;;;2.30;;
69979;SDS011;57318;56.232;43.944;2023-08-21T09:58:19;6.60;;;2.00;;
69979;SDS011;57318;56.232;43.944;2023-08-21T10:00:46;2.97;;;1.83;;
69979;SDS011;57318;56.232;43.944;2023-08-21T10:03:14;5.57;;;2.30;;
69979;SDS011;57318;56.232;43.944;2023-08-21T10:05:44;3.33;;;2.15;;
69979;SDS011;57318;56.232;43.944;2023-08-21T10:08:12;2.78;;;2.20;;
69979;SDS011;57318;56.232;43.944;2023-08-21T10:10:41;3.72;;;2.10;;
69979;SDS011;57318;56.232;43.944;2023-08-21T10:13:07;5.03;;;2.60;;
69979;SDS011;57318;56.232;43.944;2023-08-21T10:15:34;2.67;;;2.20;;
69979;SDS011;57318;56.232;43.944;2023-08-21T10:20:47;8.60;;;2.50;;
69979;SDS011;57318;56.232;43.944;2023-08-21T10:25:54;3.70;;;1.92;;
69979;SDS011;57318;56.232;43.944;2023-08-21T10:28:21;9.43;;;2.30;;
69979;SDS011;57318;56.232;43.944;2023-08-21T10:30:48;3.45;;;1.70;;
69979;SDS011;57318;56.232;43.944;2023-08-21T10:33:13;2.78;;;2.03;;
69979;SDS011;57318;56.232;43.944;2023-08-21T10:35:39;4.68;;;2.38;;
69979;SDS011;57318;56.232;43.944;2023-08-21T10:40:34;1.85;;;1.50;;
69979;SDS011;57318;56.232;43.944;2023-08-21T10:43:01;4.10;;;1.90;;
69979;SDS011;57318;56.232;43.944;2023-08-21T10:45:28;2.72;;;2.03;;
69979;SDS011;57318;56.232;43.944;2023-08-21T10:47:58;5.45;;;1.92;;
69979;SDS011;57318;56.232;43.944;2023-08-21T10:50:25;3.45;;;1.92;;
69979;SDS011;57318;56.232;43.944;2023-08-21T10:52:52;3.50;;;1.92;;
69979;SDS011;57318;56.232;43.944;2023-08-21T10:55:19;2.22;;;2.03;;
69979;SDS011;57318;56.232;43.944;2023-08-21T10:57:46;2.50;;;1.90;;
69979;SDS011;57318;56.232;43.944;2023-08-21T11:00:14;3.83;;;2.13;;
69979;SDS011;57318;56.232;43.944;2023-08-21T11:02:43;2.38;;;1.85;;
69979;SDS011;57318;56.232;43.944;2023-08-21T11:05:13;2.08;;;1.90;;
69979;SDS011;57318;56.232;43.944;2023-08-21T11:07:49;2.35;;;1.80;;
69979;SDS011;57318;56.232;43.944;2023-08-21T11:10:16;4.28;;;1.70;;
69979;SDS011;57318;56.232;43.944;2023-08-21T11:12:47;4.40;;;1.55;;
69979;SDS011;57318;56.232;43.944;2023-08-21T11:15:15;5.80;;;1.70;;
69979;SDS011;57318;56.232;43.944;2023-08-21T11:17:42;3.25;;;1.48;;
69979;SDS011;57318;56.232;43.944;2023-08-21T11:20:15;5.20;;;1.80;;
69979;SDS011;57318;56.232;43.944;2023-08-21T11:22:41;3.03;;;1.90;;
69979;SDS011;57318;56.232;43.944;2023-08-21T11:25:07;5.82;;;1.80;;
69979;SDS011;57318;56.232;43.944;2023-08-21T11:29:58;8.98;;;1.90;;
69979;SDS011;57318;56.232;43.944;2023-08-21T11:32:26;4.05;;;1.90;;
69979;SDS011;57318;56.232;43.944;2023-08-21T11:34:52;4.93;;;1.80;;
69979;SDS011;57318;56.232;43.944;2023-08-21T11:37:23;3.92;;;1.90;;
69979;SDS011;57318;56.232;43.944;2023-08-21T11:39:51;5.50;;;2.00;;
69979;SDS011;57318;56.232;43.944;2023-08-21T11:42:22;1.90;;;1.80;;
69979;SDS011;57318;56.232;43.944;2023-08-21T11:44:56;3.28;;;1.63;;
69979;SDS011;57318;56.232;43.944;2023-08-21T11:47:22;3.95;;;1.83;;
69979;SDS011;57318;56.232;43.944;2023-08-21T11:49:49;3.05;;;2.03;;
69979;SDS011;57318;56.232;43.944;2023-08-21T11:52:20;4.20;;;1.90;;
69979;SDS011;57318;56.232;43.944;2023-08-21T11:54:48;2.10;;;1.90;;
69979;SDS011;57318;56.232;43.944;2023-08-21T11:57:15;2.58;;;2.00;;
69979;SDS011;57318;56.232;43.944;2023-08-21T11:59:41;4.78;;;2.00;;
69979;SDS011;57318;56.232;43.944;2023-08-21T12:04:40;3.63;;;1.80;;
69979;SDS011;57318;56.232;43.944;2023-08-21T12:07:06;2.67;;;1.90;;
69979;SDS011;57318;56.232;43.944;2023-08-21T12:09:32;2.25;;;1.60;;
69979;SDS011;57318;56.232;43.944;2023-08-21T12:11:58;3.95;;;1.98;;
69979;SDS011;57318;56.232;43.944;2023-08-21T12:14:27;3.05;;;1.92;;
69979;SDS011;57318;56.232;43.944;2023-08-21T12:16:54;2.50;;;1.83;;
69979;SDS011;57318;56.232;43.944;2023-08-21T12:19:21;3.72;;;1.90;;
69979;SDS011;57318;56.232;43.944;2023-08-21T12:21:48;2.30;;;2.10;;
69979;SDS011;57318;56.232;43.944;2023-08-21T12:24:18;3.85;;;2.20;;
69979;SDS011;57318;56.232;43.944;2023-08-21T12:26:46;3.95;;;1.98;;
69979;SDS011;57318;56.232;43.944;2023-08-21T12:29:12;3.97;;;2.28;;
69979;SDS011;57318;56.232;43.944;2023-08-21T12:31:38;2.42;;;2.22;;
69979;SDS011;57318;56.232;43.944;2023-08-21T12:34:06;2.67;;;2.10;;
69979;SDS011;57318;56.232;43.944;2023-08-21T12:39:04;3.25;;;2.35;;
69979;SDS011;57318;56.232;43.944;2023-08-21T12:41:31;6.60;;;2.35;;
69979;SDS011;57318;56.232;43.944;2023-08-21T12:43:58;4.00;;;1.95;;
69979;SDS011;57318;56.232;43.944;2023-08-21T12:46:25;4.25;;;1.92;;
69979;SDS011;57318;56.232;43.944;2023-08-21T12:48:53;10.70;;;2.47;;
69979;SDS011;57318;56.232;43.944;2023-08-21T12:51:19;2.60;;;1.90;;
69979;SDS011;57318;56.232;43.944;2023-08-21T12:56:10;2.70;;;2.17;;
69979;SDS011;57318;56.232;43.944;2023-08-21T13:01:01;3.97;;;1.80;;
69979;SDS011;57318;56.232;43.944;2023-08-21T13:03:28;2.85;;;1.90;;
69979;SDS011;57318;56.232;43.944;2023-08-21T13:05:57;3.58;;;2.20;;
69979;SDS011;57318;56.232;43.944;2023-08-21T13:10:49;6.07;;;2.78;;
69979;SDS011;57318;56.232;43.944;2023-08-21T13:13:14;5.93;;;2.17;;
69979;SDS011;57318;56.232;43.944;2023-08-21T13:15:40;4.32;;;2.20;;
69979;SDS011;57318;56.232;43.944;2023-08-21T13:18:12;4.65;;;2.20;;
69979;SDS011;57318;56.232;43.944;2023-08-21T13:20:41;3.65;;;2.20;;
69979;SDS011;57318;56.232;43.944;2023-08-21T13:23:19;2.42;;;1.90;;
69979;SDS011;57318;56.232;43.944;2023-08-21T13:25:45;4.13;;;2.30;;
69979;SDS011;57318;56.232;43.944;2023-08-21T13:28:11;3.28;;;2.28;;
69979;SDS011;57318;56.232;43.944;2023-08-21T13:33:02;4.00;;;2.20;;
69979;SDS011;57318;56.232;43.944;2023-08-21T13:35:29;10.35;;;3.17;;
69979;SDS011;57318;56.232;43.944;2023-08-21T13:37:56;7.88;;;2.40;;
69979;SDS011;57318;56.232;43.944;2023-08-21T13:42:47;3.28;;;2.10;;
69979;SDS011;57318;56.232;43.944;2023-08-21T13:45:15;1.92;;;1.83;;
69979;SDS011;57318;56.232;43.944;2023-08-21T13:47:45;4.75;;;2.17;;
69979;SDS011;57318;56.232;43.944;2023-08-21T13:50:13;2.38;;;2.17;;
69979;SDS011;57318;56.232;43.944;2023-08-21T13:52:40;2.40;;;1.83;;
69979;SDS011;57318;56.232;43.944;2023-08-21T13:55:07;4.45;;;2.00;;
69979;SDS011;57318;56.232;43.944;2023-08-21T13:57:34;9.10;;;2.35;;
69979;SDS011;57318;56.232;43.944;2023-08-21T14:00:00;3.92;;;1.80;;
69979;SDS011;57318;56.232;43.944;2023-08-21T14:02:26;3.08;;;1.65;;
69979;SDS011;57318;56.232;43.944;2023-08-21T14:04:54;5.28;;;1.90;;
69979;SDS011;57318;56.232;43.944;2023-08-21T14:07:19;10.05;;;2.58;;
69979;SDS011;57318;56.232;43.944;2023-08-21T14:09:45;6.15;;;2.35;;
69979;SDS011;57318;56.232;43.944;2023-08-21T14:12:11;4.53;;;2.15;;
69979;SDS011;57318;56.232;43.944;2023-08-21T14:14:37;4.15;;;2.17;;
69979;SDS011;57318;56.232;43.944;2023-08-21T14:17:03;8.23;;;1.90;;
69979;SDS011;57318;56.232;43.944;2023-08-21T14:19:32;4.72;;;1.80;;
69979;SDS011;57318;56.232;43.944;2023-08-21T14:21:58;2.10;;;1.90;;
69979;SDS011;57318;56.232;43.944;2023-08-21T14:24:24;2.92;;;1.90;;
69979;SDS011;57318;56.232;43.944;2023-08-21T14:26:50;3.78;;;2.25;;
69979;SDS011;57318;56.232;43.944;2023-08-21T14:31:42;4.22;;;1.98;;
69979;SDS011;57318;56.232;43.944;2023-08-21T14:34:07;3.20;;;1.95;;
69979;SDS011;57318;56.232;43.944;2023-08-21T14:38:58;2.70;;;1.77;;
69979;SDS011;57318;56.232;43.944;2023-08-21T14:41:24;6.43;;;1.73;;
69979;SDS011;57318;56.232;43.944;2023-08-21T14:46:16;9.10;;;2.08;;
69979;SDS011;57318;56.232;43.944;2023-08-21T14:48:41;2.75;;;1.50;;
69979;SDS011;57318;56.232;43.944;2023-08-21T14:51:07;4.70;;;2.00;;
69979;SDS011;57318;56.232;43.944;2023-08-21T14:53:33;4.28;;;1.90;;
69979;SDS011;57318;56.232;43.944;2023-08-21T14:55:59;3.08;;;1.80;;
69979;SDS011;57318;56.232;43.944;2023-08-21T14:58:25;4.07;;;1.95;;
69979;SDS011;57318;56.232;43.944;2023-08-21T15:00:53;2.10;;;1.85;;
69979;SDS011;57318;56.232;43.944;2023-08-21T15:03:19;1.67;;;1.58;;
69979;SDS011;57318;56.232;43.944;2023-08-21T15:05:46;3.72;;;1.70;;
69979;SDS011;57318;56.232;43.944;2023-08-21T15:08:12;7.93;;;1.70;;
69979;SDS011;57318;56.232;43.944;2023-08-21T15:10:38;1.92;;;1.70;;
69979;SDS011;57318;56.232;43.944;2023-08-21T15:13:04;2.63;;;1.73;;
69979;SDS011;57318;56.232;43.944;2023-08-21T15:15:30;4.88;;;1.83;;
69979;SDS011;57318;56.232;43.944;2023-08-21T15:17:56;4.93;;;2.00;;
69979;SDS011;57318;56.232;43.944;2023-08-21T15:20:22;2.75;;;1.77;;
69979;SDS011;57318;56.232;43.944;2023-08-21T15:22:47;2.00;;;1.73;;
69979;SDS011;57318;56.232;43.944;2023-08-21T15:25:15;2.75;;;2.25;;
69979;SDS011;57318;56.232;43.944;2023-08-21T15:27:41;2.50;;;2.00;;
69979;SDS011;57318;56.232;43.944;2023-08-21T15:30:07;2.47;;;2.03;;
69979;SDS011;57318;56.232;43.944;2023-08-21T15:32:34;2.65;;;1.75;;
69979;SDS011;57318;56.232;43.944;2023-08-21T15:35:00;6.47;;;3.13;;
69979;SDS011;57318;56.232;43.944;2023-08-21T15:37:27;5.03;;;2.08;;
69979;SDS011;57318;56.232;43.944;2023-08-21T15:39:53;6.03;;;1.95;;